Time;durP1;ratioP1;P1;durP2;ratioP2;P2;SDS_P1;SDS_P2;PMS_P1;PMS_P2;Temp;Humidity;BMP_temperature;BMP_pressure;BME280_temperature;BME280_humidity;BME280_pressure;Samples;Min_cycle;Max_cycle;Signal;HPM_P1;HPM_P2
2023/08/27 00:01:42;;;;;;;3.30;2.00;;;;;;;;;;5043154;28;20212;-86
2023/08/27 00:04:11;;;;;;;2.17;1.73;;;;;;;;;;5038039;28;20234;-87
2023/08/27 00:06:36;;;;;;;2.10;1.90;;;;;;;;;;5035962;28;20591;-86
2023/08/27 00:09:03;;;;;;;2.53;2.03;;;;;;;;;;5022342;28;20217;-86
2023/08/27 00:11:28;;;;;;;2.25;1.70;;;;;;;;;;5052208;28;20231;-86
2023/08/27 00:13:57;;;;;;;2.85;1.85;;;;;;;;;;5032910;28;20215;-85
2023/08/27 00:16:22;;;;;;;1.80;1.60;;;;;;;;;;5054417;28;20231;-86
2023/08/27 00:18:48;;;;;;;1.75;1.65;;;;;;;;;;5031333;28;20207;-87
2023/08/27 00:21:13;;;;;;;2.15;1.98;;;;;;;;;;5003975;28;20603;-87
2023/08/27 00:23:41;;;;;;;1.60;1.50;;;;;;;;;;5024970;28;20238;-87
2023/08/27 00:26:07;;;;;;;1.93;1.77;;;;;;;;;;5020685;28;20632;-86
2023/08/27 00:28:34;;;;;;;1.90;1.80;;;;;;;;;;5022437;28;20742;-87
2023/08/27 00:31:02;;;;;;;3.50;2.08;;;;;;;;;;5044834;28;20294;-85
2023/08/27 00:33:27;;;;;;;2.38;2.00;;;;;;;;;;5023261;28;20227;-87
2023/08/27 00:35:56;;;;;;;1.85;1.50;;;;;;;;;;5020516;28;20215;-87
2023/08/27 00:38:24;;;;;;;2.90;1.93;;;;;;;;;;5034860;28;20737;-88
2023/08/27 00:40:50;;;;;;;3.43;1.87;;;;;;;;;;5019675;28;20218;-86
2023/08/27 00:43:19;;;;;;;3.17;1.80;;;;;;;;;;5038187;28;20216;-87
2023/08/27 00:45:46;;;;;;;1.73;1.50;;;;;;;;;;5006985;28;20225;-85
2023/08/27 00:48:14;;;;;;;2.60;1.88;;;;;;;;;;5054784;28;20211;-87
2023/08/27 00:50:40;;;;;;;1.85;1.75;;;;;;;;;;5022237;28;20221;-88
2023/08/27 00:53:08;;;;;;;5.35;2.00;;;;;;;;;;5043278;28;20230;-87
2023/08/27 00:55:34;;;;;;;1.98;1.88;;;;;;;;;;5006532;28;20258;-87
2023/08/27 00:58:02;;;;;;;2.63;1.77;;;;;;;;;;5019953;28;20243;-86
2023/08/27 01:00:27;;;;;;;2.07;1.90;;;;;;;;;;5019878;28;20222;-87
2023/08/27 01:02:53;;;;;;;2.20;1.98;;;;;;;;;;5034992;28;20207;-87
2023/08/27 01:05:20;;;;;;;1.90;1.80;;;;;;;;;;5018184;28;20233;-86
2023/08/27 01:08:03;;;;;;;1.90;1.80;;;;;;;;;;5037076;28;20242;-87
2023/08/27 01:10:44;;;;;;;3.08;1.92;;;;;;;;;;5036060;28;20226;-86
2023/08/27 01:13:16;;;;;;;2.20;2.03;;;;;;;;;;5056251;28;20230;-86
2023/08/27 01:15:45;;;;;;;2.78;2.10;;;;;;;;;;5015089;28;20287;-87
2023/08/27 01:18:13;;;;;;;1.87;1.77;;;;;;;;;;5021348;28;20218;-86
2023/08/27 01:20:40;;;;;;;1.77;1.65;;;;;;;;;;5020129;28;20215;-85
2023/08/27 01:23:06;;;;;;;1.98;1.75;;;;;;;;;;5037287;28;20235;-86
2023/08/27 01:25:41;;;;;;;2.80;2.28;;;;;;;;;;5051426;28;20227;-86
2023/08/27 01:28:13;;;;;;;3.28;2.28;;;;;;;;;;5032447;28;20215;-87
2023/08/27 01:30:43;;;;;;;4.03;2.67;;;;;;;;;;5034176;28;20219;-87
2023/08/27 01:33:12;;;;;;;2.27;2.07;;;;;;;;;;5033092;28;20212;-86
2023/08/27 01:35:38;;;;;;;2.53;2.25;;;;;;;;;;5009442;28;20297;-85
2023/08/27 01:38:03;;;;;;;2.53;2.33;;;;;;;;;;5042080;28;20694;-87
2023/08/27 01:40:31;;;;;;;2.30;1.95;;;;;;;;;;5037330;28;20241;-85
2023/08/27 01:43:04;;;;;;;2.92;2.30;;;;;;;;;;5047246;28;20225;-86
2023/08/27 01:45:32;;;;;;;2.65;2.40;;;;;;;;;;5038998;28;20230;-86
2023/08/27 01:48:00;;;;;;;2.45;2.25;;;;;;;;;;5049700;28;20213;-88
2023/08/27 01:50:25;;;;;;;2.47;2.28;;;;;;;;;;5025361;28;20229;-87
2023/08/27 01:52:52;;;;;;;2.47;2.28;;;;;;;;;;5017578;28;20223;-86
2023/08/27 01:55:18;;;;;;;7.43;2.35;;;;;;;;;;5021391;28;20284;-86
2023/08/27 01:57:45;;;;;;;2.10;2.00;;;;;;;;;;5020266;28;20453;-85
2023/08/27 02:00:16;;;;;;;2.95;2.20;;;;;;;;;;5005373;28;20242;-88
2023/08/27 02:02:44;;;;;;;2.30;2.10;;;;;;;;;;5039828;28;20274;-86
2023/08/27 02:05:10;;;;;;;2.20;2.00;;;;;;;;;;5007939;28;20940;-86
2023/08/27 02:07:37;;;;;;;4.43;2.33;;;;;;;;;;5059381;28;20276;-85
2023/08/27 02:10:07;;;;;;;2.23;2.13;;;;;;;;;;5007751;28;20266;-86
2023/08/27 02:12:36;;;;;;;2.97;2.55;;;;;;;;;;4998837;28;20231;-87
2023/08/27 02:15:06;;;;;;;3.03;2.35;;;;;;;;;;5024843;28;20221;-87
2023/08/27 02:17:34;;;;;;;3.60;2.17;;;;;;;;;;5037903;28;20223;-86
2023/08/27 02:20:00;;;;;;;3.47;2.70;;;;;;;;;;5001690;28;20310;-85
2023/08/27 02:22:25;;;;;;;3.03;2.35;;;;;;;;;;5048838;28;20598;-87
2023/08/27 02:24:52;;;;;;;3.55;2.30;;;;;;;;;;5040149;28;20633;-87
2023/08/27 02:27:17;;;;;;;2.17;1.98;;;;;;;;;;5023443;28;20282;-87
2023/08/27 02:29:43;;;;;;;2.73;2.40;;;;;;;;;;5020635;28;20226;-86
2023/08/27 02:32:11;;;;;;;4.07;2.45;;;;;;;;;;5023525;28;20218;-86
2023/08/27 02:34:36;;;;;;;2.50;2.20;;;;;;;;;;5024750;28;20756;-86
2023/08/27 02:37:04;;;;;;;2.67;2.47;;;;;;;;;;5026624;28;20218;-86
2023/08/27 02:39:29;;;;;;;2.20;2.00;;;;;;;;;;5023481;28;20231;-85
2023/08/27 02:41:57;;;;;;;2.95;2.40;;;;;;;;;;5019179;28;20204;-85
2023/08/27 02:44:23;;;;;;;3.70;2.30;;;;;;;;;;5028669;28;20688;-85
2023/08/27 02:46:53;;;;;;;3.05;2.50;;;;;;;;;;5029536;28;20215;-85
2023/08/27 02:49:20;;;;;;;2.55;2.20;;;;;;;;;;5023511;28;20242;-87
2023/08/27 02:51:47;;;;;;;2.10;2.00;;;;;;;;;;5023059;28;20275;-86
2023/08/27 02:54:18;;;;;;;3.13;2.23;;;;;;;;;;5033310;28;20215;-85
2023/08/27 02:56:46;;;;;;;2.67;2.42;;;;;;;;;;5018214;28;20287;-85
2023/08/27 02:59:17;;;;;;;2.47;2.27;;;;;;;;;;5014868;28;20215;-86
2023/08/27 03:01:44;;;;;;;2.50;2.30;;;;;;;;;;5029012;28;20310;-86
2023/08/27 03:04:11;;;;;;;4.27;2.70;;;;;;;;;;5018280;28;20241;-86
2023/08/27 03:06:42;;;;;;;2.73;2.53;;;;;;;;;;5028716;28;20222;-85
2023/08/27 03:09:07;;;;;;;2.53;2.17;;;;;;;;;;5038364;28;20226;-87
2023/08/27 03:11:33;;;;;;;5.00;3.05;;;;;;;;;;5028760;28;20235;-85
2023/08/27 03:14:03;;;;;;;3.13;2.10;;;;;;;;;;5009545;28;20229;-86
2023/08/27 03:16:48;;;;;;;2.33;2.20;;;;;;;;;;5039946;28;20249;-87
2023/08/27 03:19:19;;;;;;;3.17;2.43;;;;;;;;;;5004662;28;20219;-85
2023/08/27 03:21:44;;;;;;;4.77;2.23;;;;;;;;;;5052970;28;20242;-86
2023/08/27 03:24:13;;;;;;;2.47;2.27;;;;;;;;;;5051282;28;20215;-85
2023/08/27 03:26:39;;;;;;;2.67;2.40;;;;;;;;;;5036180;28;20226;-85
2023/08/27 03:29:05;;;;;;;5.50;2.93;;;;;;;;;;5048236;28;20587;-88
2023/08/27 03:31:31;;;;;;;2.43;2.23;;;;;;;;;;5006275;28;20227;-86
2023/08/27 03:33:59;;;;;;;2.60;2.40;;;;;;;;;;5036792;28;20273;-88
2023/08/27 03:36:24;;;;;;;2.40;2.20;;;;;;;;;;5033678;28;20234;-88
2023/08/27 03:38:50;;;;;;;2.30;2.10;;;;;;;;;;5024570;28;20656;-87
2023/08/27 03:41:19;;;;;;;2.67;2.47;;;;;;;;;;5029178;28;20220;-86
2023/08/27 03:43:44;;;;;;;2.60;2.40;;;;;;;;;;5025863;28;20227;-86
2023/08/27 03:46:13;;;;;;;2.50;2.30;;;;;;;;;;5005498;28;20251;-86
2023/08/27 03:48:39;;;;;;;2.80;2.60;;;;;;;;;;5037646;28;20226;-87
2023/08/27 03:51:04;;;;;;;2.90;2.63;;;;;;;;;;5029211;28;20219;-87
2023/08/27 03:53:32;;;;;;;2.60;2.40;;;;;;;;;;5025685;28;20608;-86
2023/08/27 03:56:04;;;;;;;3.03;2.77;;;;;;;;;;5041006;28;20214;-88
2023/08/27 03:58:33;;;;;;;2.47;2.27;;;;;;;;;;5057331;28;20272;-86
2023/08/27 04:04:45;;;;;;;3.00;2.70;;;;;;;;;;5055522;28;20226;-87
2023/08/27 04:07:16;;;;;;;6.03;2.80;;;;;;;;;;5058320;28;20305;-86
2023/08/27 04:09:47;;;;;;;2.70;2.40;;;;;;;;;;5040926;28;20223;-87
2023/08/27 04:12:12;;;;;;;5.07;2.40;;;;;;;;;;5002646;28;20704;-86
2023/08/27 04:14:38;;;;;;;3.23;2.60;;;;;;;;;;5003786;28;20227;-86
2023/08/27 04:17:06;;;;;;;2.33;2.23;;;;;;;;;;5014704;28;20215;-86
2023/08/27 04:19:32;;;;;;;2.97;2.57;;;;;;;;;;5029405;28;20224;-86
2023/08/27 04:22:00;;;;;;;2.60;2.40;;;;;;;;;;5070543;28;20298;-87
2023/08/27 04:24:28;;;;;;;2.87;2.40;;;;;;;;;;5037508;28;20300;-85
2023/08/27 04:26:54;;;;;;;2.47;2.27;;;;;;;;;;5055409;28;20210;-86
2023/08/27 04:29:21;;;;;;;2.67;2.47;;;;;;;;;;5022614;28;20564;-86
2023/08/27 04:31:47;;;;;;;5.90;2.30;;;;;;;;;;5018794;28;20361;-86
2023/08/27 04:34:15;;;;;;;4.03;2.87;;;;;;;;;;5009298;28;20853;-87
2023/08/27 04:36:43;;;;;;;2.78;2.47;;;;;;;;;;5039790;28;20231;-86
2023/08/27 04:39:09;;;;;;;2.60;2.33;;;;;;;;;;5019423;28;20665;-86
2023/08/27 04:41:37;;;;;;;2.30;2.20;;;;;;;;;;5036529;28;20233;-87
2023/08/27 04:44:02;;;;;;;2.63;2.43;;;;;;;;;;5012678;28;20273;-86
2023/08/27 04:46:33;;;;;;;2.43;2.20;;;;;;;;;;5010492;28;20210;-87
2023/08/27 04:48:59;;;;;;;4.50;2.30;;;;;;;;;;5027787;28;20226;-86
2023/08/27 04:51:26;;;;;;;3.07;2.30;;;;;;;;;;5017198;28;20222;-87
2023/08/27 04:53:52;;;;;;;2.83;2.10;;;;;;;;;;5008690;28;20272;-87
2023/08/27 04:56:20;;;;;;;2.97;2.70;;;;;;;;;;5019492;28;20691;-86
2023/08/27 04:58:48;;;;;;;2.60;2.40;;;;;;;;;;5030645;28;20233;-88
2023/08/27 05:01:18;;;;;;;3.40;3.10;;;;;;;;;;5022632;28;20214;-86
2023/08/27 05:03:46;;;;;;;3.47;2.80;;;;;;;;;;5061403;28;20227;-86
2023/08/27 05:06:15;;;;;;;2.63;2.47;;;;;;;;;;5045357;28;20223;-85
2023/08/27 05:08:42;;;;;;;3.10;2.80;;;;;;;;;;5036238;28;20229;-86
2023/08/27 05:11:08;;;;;;;3.23;2.90;;;;;;;;;;5020605;28;20680;-85
2023/08/27 05:13:35;;;;;;;3.87;2.70;;;;;;;;;;5018079;28;20234;-86
2023/08/27 05:16:03;;;;;;;3.13;2.80;;;;;;;;;;5021603;28;20215;-85
2023/08/27 05:18:33;;;;;;;2.70;2.50;;;;;;;;;;5036454;28;20310;-86
2023/08/27 05:21:01;;;;;;;3.30;2.30;;;;;;;;;;5028029;28;20695;-86
2023/08/27 05:23:26;;;;;;;2.30;2.20;;;;;;;;;;5034759;28;20243;-85
2023/08/27 05:25:52;;;;;;;2.80;2.60;;;;;;;;;;5037055;28;20222;-86
2023/08/27 05:28:18;;;;;;;2.73;2.43;;;;;;;;;;5033675;28;20218;-87
2023/08/27 05:30:45;;;;;;;5.00;2.70;;;;;;;;;;5021053;28;20223;-84
2023/08/27 05:33:14;;;;;;;2.57;2.37;;;;;;;;;;5035685;28;20227;-86
2023/08/27 05:35:40;;;;;;;2.83;2.63;;;;;;;;;;5055037;28;20218;-88
2023/08/27 05:38:10;;;;;;;2.73;2.50;;;;;;;;;;5035384;28;20219;-85
2023/08/27 05:40:40;;;;;;;2.53;2.37;;;;;;;;;;5001992;28;20227;-87
2023/08/27 05:43:08;;;;;;;2.87;2.67;;;;;;;;;;5022496;28;20283;-85
2023/08/27 05:45:34;;;;;;;2.70;2.50;;;;;;;;;;5026364;28;20240;-85
2023/08/27 05:48:01;;;;;;;2.33;2.15;;;;;;;;;;5014130;28;20219;-86
2023/08/27 05:50:29;;;;;;;2.83;2.60;;;;;;;;;;5020735;28;20313;-88
2023/08/27 05:52:56;;;;;;;2.90;2.70;;;;;;;;;;5019832;28;20759;-88
2023/08/27 05:55:24;;;;;;;2.70;2.50;;;;;;;;;;5030063;28;20225;-85
2023/08/27 05:57:54;;;;;;;2.87;2.67;;;;;;;;;;5030604;28;20225;-86
2023/08/27 06:00:24;;;;;;;2.80;2.60;;;;;;;;;;5020326;28;20215;-87
2023/08/27 06:02:50;;;;;;;3.50;2.90;;;;;;;;;;5021190;28;20230;-86
2023/08/27 06:05:16;;;;;;;2.63;2.43;;;;;;;;;;5029350;28;20242;-87
2023/08/27 06:07:44;;;;;;;2.83;2.60;;;;;;;;;;5034206;28;20221;-86
2023/08/27 06:10:13;;;;;;;2.97;2.60;;;;;;;;;;5039099;28;20233;-86
2023/08/27 06:12:41;;;;;;;2.77;2.57;;;;;;;;;;5039324;28;20623;-84
2023/08/27 06:15:07;;;;;;;3.13;2.53;;;;;;;;;;5022129;28;20611;-86
2023/08/27 06:17:33;;;;;;;3.08;2.80;;;;;;;;;;5035508;28;20224;-85
2023/08/27 06:20:01;;;;;;;4.32;2.65;;;;;;;;;;5058833;28;20234;-85
2023/08/27 06:22:26;;;;;;;3.60;3.17;;;;;;;;;;5005120;28;20219;-85
2023/08/27 06:24:55;;;;;;;3.37;2.90;;;;;;;;;;5013226;28;20220;-86
2023/08/27 06:27:21;;;;;;;4.03;2.80;;;;;;;;;;5024435;28;20230;-86
2023/08/27 06:29:46;;;;;;;2.75;2.55;;;;;;;;;;5011168;28;20223;-85
2023/08/27 06:32:17;;;;;;;2.65;2.45;;;;;;;;;;5022036;28;20250;-87
2023/08/27 06:34:42;;;;;;;3.75;2.75;;;;;;;;;;5016571;28;20315;-88
2023/08/27 06:37:08;;;;;;;4.38;2.53;;;;;;;;;;5006183;28;20578;-87
2023/08/27 06:39:33;;;;;;;4.15;2.78;;;;;;;;;;5038137;28;20235;-86
2023/08/27 06:42:03;;;;;;;2.72;2.53;;;;;;;;;;5028104;28;20263;-86
2023/08/27 06:44:33;;;;;;;2.85;2.45;;;;;;;;;;5016856;28;20771;-86
2023/08/27 06:47:00;;;;;;;2.95;2.75;;;;;;;;;;5019206;28;20211;-87
2023/08/27 06:49:32;;;;;;;2.72;2.53;;;;;;;;;;5040354;28;20214;-89
2023/08/27 06:51:57;;;;;;;4.70;2.60;;;;;;;;;;5021583;28;20235;-89
2023/08/27 06:54:25;;;;;;;2.75;2.55;;;;;;;;;;5006799;28;20231;-87
2023/08/27 06:56:53;;;;;;;2.60;2.40;;;;;;;;;;5013081;28;20223;-86
2023/08/27 06:59:18;;;;;;;3.58;2.83;;;;;;;;;;5034288;28;20223;-86
2023/08/27 07:01:45;;;;;;;3.13;2.40;;;;;;;;;;5005421;28;20245;-87
2023/08/27 07:04:16;;;;;;;2.60;2.40;;;;;;;;;;5005352;28;20655;-88
2023/08/27 07:06:42;;;;;;;2.97;2.67;;;;;;;;;;5027547;28;20227;-85
2023/08/27 07:09:08;;;;;;;2.80;2.10;;;;;;;;;;5021332;28;20223;-86
2023/08/27 07:11:38;;;;;;;2.78;2.55;;;;;;;;;;5006808;28;20231;-84
2023/08/27 07:14:03;;;;;;;3.40;2.35;;;;;;;;;;5011941;28;20262;-84
2023/08/27 07:16:29;;;;;;;3.13;2.78;;;;;;;;;;5020192;28;20218;-86
2023/08/27 07:18:56;;;;;;;3.63;2.47;;;;;;;;;;5032774;28;20280;-86
2023/08/27 07:21:23;;;;;;;2.38;2.17;;;;;;;;;;5036524;28;20694;-85
2023/08/27 07:23:53;;;;;;;2.30;2.15;;;;;;;;;;5047121;28;20276;-85
2023/08/27 07:26:19;;;;;;;2.40;2.20;;;;;;;;;;5034182;28;20226;-85
2023/08/27 07:28:48;;;;;;;2.10;2.00;;;;;;;;;;5026774;28;20218;-87
2023/08/27 07:31:16;;;;;;;2.03;1.83;;;;;;;;;;4998674;28;20221;-86
2023/08/27 07:33:42;;;;;;;2.00;1.90;;;;;;;;;;5016401;28;20222;-84
2023/08/27 07:36:12;;;;;;;3.10;2.22;;;;;;;;;;5018337;28;20277;-84
2023/08/27 07:38:40;;;;;;;1.80;1.70;;;;;;;;;;5030791;28;20223;-85
2023/08/27 07:41:10;;;;;;;5.97;2.15;;;;;;;;;;5016739;28;20242;-85
2023/08/27 07:43:37;;;;;;;3.40;2.15;;;;;;;;;;5035699;28;20234;-86
2023/08/27 07:46:11;;;;;;;3.00;1.90;;;;;;;;;;5015501;28;20215;-86
2023/08/27 07:48:37;;;;;;;2.30;2.10;;;;;;;;;;5012348;28;20231;-85
2023/08/27 07:51:02;;;;;;;2.60;2.00;;;;;;;;;;5011000;28;20267;-85
2023/08/27 07:53:30;;;;;;;2.65;1.75;;;;;;;;;;5033501;28;20226;-85
2023/08/27 07:55:56;;;;;;;1.75;1.65;;;;;;;;;;5019561;28;20230;-86
2023/08/27 07:58:23;;;;;;;1.85;1.67;;;;;;;;;;5050041;28;20578;-86
2023/08/27 08:00:59;;;;;;;2.88;2.22;;;;;;;;;;5020105;28;20234;-84
2023/08/27 08:03:27;;;;;;;2.38;2.17;;;;;;;;;;5025310;28;20233;-87
2023/08/27 08:05:55;;;;;;;2.05;1.85;;;;;;;;;;5012224;28;20608;-86
2023/08/27 08:08:20;;;;;;;4.63;2.17;;;;;;;;;;5036075;28;20253;-87
2023/08/27 08:10:46;;;;;;;3.20;1.98;;;;;;;;;;5039837;28;20218;-85
2023/08/27 08:13:12;;;;;;;2.00;1.90;;;;;;;;;;5026612;28;20242;-86
2023/08/27 08:15:37;;;;;;;2.35;2.10;;;;;;;;;;5020570;28;20679;-86
2023/08/27 08:18:03;;;;;;;2.53;2.25;;;;;;;;;;5022565;28;20307;-86
2023/08/27 08:20:32;;;;;;;1.70;1.60;;;;;;;;;;5022323;28;20250;-85
2023/08/27 08:22:58;;;;;;;1.95;1.80;;;;;;;;;;5033254;28;20231;-86
2023/08/27 08:25:27;;;;;;;2.35;1.70;;;;;;;;;;5023390;28;20229;-88
2023/08/27 08:27:53;;;;;;;1.73;1.63;;;;;;;;;;5023934;28;20230;-86
2023/08/27 08:30:18;;;;;;;1.67;1.58;;;;;;;;;;5017326;28;20230;-87
2023/08/27 08:32:44;;;;;;;3.33;1.60;;;;;;;;;;5033656;28;20260;-87
2023/08/27 08:35:10;;;;;;;3.67;1.80;;;;;;;;;;5004458;28;20214;-86
2023/08/27 08:37:38;;;;;;;3.90;1.48;;;;;;;;;;5030550;28;20481;-86
2023/08/27 08:40:10;;;;;;;1.65;1.55;;;;;;;;;;5019873;28;20621;-85
2023/08/27 08:42:45;;;;;;;1.70;1.58;;;;;;;;;;5026247;28;20222;-86
2023/08/27 08:45:13;;;;;;;2.58;1.50;;;;;;;;;;5064788;28;20225;-85
2023/08/27 08:47:43;;;;;;;3.42;1.60;;;;;;;;;;5038232;28;20223;-86
2023/08/27 08:50:09;;;;;;;2.40;1.58;;;;;;;;;;5023800;28;20317;-87
2023/08/27 08:52:42;;;;;;;1.70;1.50;;;;;;;;;;5036416;28;20318;-84
2023/08/27 08:55:11;;;;;;;4.22;1.67;;;;;;;;;;5033654;28;20237;-87
2023/08/27 08:57:48;;;;;;;2.05;1.58;;;;;;;;;;5032967;28;20211;-85
2023/08/27 09:00:13;;;;;;;4.55;1.48;;;;;;;;;;5033046;28;20222;-85
2023/08/27 09:02:39;;;;;;;4.00;1.27;;;;;;;;;;5035277;28;20222;-86
2023/08/27 09:05:05;;;;;;;1.48;1.38;;;;;;;;;;5013801;28;20231;-85
2023/08/27 09:07:34;;;;;;;2.08;1.42;;;;;;;;;;5018515;28;20684;-86
2023/08/27 09:10:02;;;;;;;2.65;1.55;;;;;;;;;;5050650;28;20226;-84
2023/08/27 09:12:34;;;;;;;1.30;1.20;;;;;;;;;;5020447;28;20304;-84
2023/08/27 09:15:00;;;;;;;1.73;1.63;;;;;;;;;;5039241;28;20646;-81
2023/08/27 09:17:29;;;;;;;3.85;1.48;;;;;;;;;;5011698;28;20219;-79
2023/08/27 09:19:56;;;;;;;3.25;1.70;;;;;;;;;;5054894;28;20388;-79
2023/08/27 09:22:22;;;;;;;1.35;1.00;;;;;;;;;;5064690;28;20235;-79
2023/08/27 09:24:47;;;;;;;1.27;1.15;;;;;;;;;;5020087;28;20239;-80
2023/08/27 09:27:15;;;;;;;1.20;1.10;;;;;;;;;;5032802;28;20253;-80
2023/08/27 09:29:43;;;;;;;2.42;1.17;;;;;;;;;;5047723;28;20681;-82
2023/08/27 09:32:21;;;;;;;1.42;1.30;;;;;;;;;;5056315;28;20227;-80
2023/08/27 09:34:46;;;;;;;4.63;1.27;;;;;;;;;;5029711;28;20249;-80
2023/08/27 09:37:12;;;;;;;3.58;1.27;;;;;;;;;;5043467;28;20602;-80
2023/08/27 09:39:39;;;;;;;1.92;1.40;;;;;;;;;;5048015;28;20229;-80
2023/08/27 09:42:07;;;;;;;1.40;1.25;;;;;;;;;;5062364;28;20219;-79
2023/08/27 09:44:35;;;;;;;1.55;1.20;;;;;;;;;;5038238;28;20317;-80
2023/08/27 09:47:03;;;;;;;1.58;1.20;;;;;;;;;;5054819;28;20223;-81
2023/08/27 09:49:31;;;;;;;3.55;1.02;;;;;;;;;;4998108;28;20215;-80
2023/08/27 09:51:58;;;;;;;4.97;1.25;;;;;;;;;;5033850;28;20226;-80
2023/08/27 09:54:28;;;;;;;1.40;1.13;;;;;;;;;;5031425;28;20222;-80
2023/08/27 09:56:59;;;;;;;2.35;1.23;;;;;;;;;;5015757;28;20241;-79
2023/08/27 09:59:30;;;;;;;1.48;1.15;;;;;;;;;;5046419;28;20579;-79
2023/08/27 10:02:00;;;;;;;1.65;1.33;;;;;;;;;;5031566;28;20211;-80
2023/08/27 10:04:25;;;;;;;0.80;0.80;;;;;;;;;;5040822;28;20305;-79
2023/08/27 10:06:51;;;;;;;1.30;1.10;;;;;;;;;;5038872;28;20214;-80
2023/08/27 10:09:16;;;;;;;1.90;1.48;;;;;;;;;;5021092;28;20219;-81
2023/08/27 10:11:46;;;;;;;0.90;0.90;;;;;;;;;;5035479;28;20226;-79
2023/08/27 10:14:11;;;;;;;1.65;1.20;;;;;;;;;;5041623;28;20239;-80
2023/08/27 10:16:39;;;;;;;1.20;1.10;;;;;;;;;;5017022;28;20237;-79
2023/08/27 10:19:09;;;;;;;1.55;1.02;;;;;;;;;;5019739;28;20260;-80
2023/08/27 10:21:37;;;;;;;1.30;1.20;;;;;;;;;;5040175;28;20242;-79
2023/08/27 10:24:03;;;;;;;1.95;1.02;;;;;;;;;;5016424;28;20221;-79
2023/08/27 10:26:29;;;;;;;1.85;1.23;;;;;;;;;;5017448;28;20239;-79
2023/08/27 10:28:55;;;;;;;1.55;1.00;;;;;;;;;;5011739;28;20207;-80
2023/08/27 10:31:22;;;;;;;1.17;1.05;;;;;;;;;;5013754;28;20285;-79
2023/08/27 10:33:51;;;;;;;1.98;1.17;;;;;;;;;;5031812;28;20226;-78
2023/08/27 10:36:31;;;;;;;5.07;1.20;;;;;;;;;;5030484;28;20206;-81
2023/08/27 10:38:57;;;;;;;1.83;1.20;;;;;;;;;;5044332;28;20206;-80
2023/08/27 10:41:23;;;;;;;2.10;1.35;;;;;;;;;;5041740;28;20745;-78
2023/08/27 10:43:51;;;;;;;1.27;0.90;;;;;;;;;;5039131;28;20807;-78
2023/08/27 10:46:20;;;;;;;1.27;1.05;;;;;;;;;;5057061;28;20278;-79
2023/08/27 10:48:53;;;;;;;1.77;1.20;;;;;;;;;;5047060;28;20216;-79
2023/08/27 10:51:21;;;;;;;1.60;1.30;;;;;;;;;;5060721;28;20227;-81
2023/08/27 10:53:51;;;;;;;1.35;1.17;;;;;;;;;;5056439;28;20223;-79
2023/08/27 10:56:35;;;;;;;7.78;1.20;;;;;;;;;;5039446;28;20226;-79
2023/08/27 10:59:13;;;;;;;1.20;1.10;;;;;;;;;;5040855;28;20227;-80
2023/08/27 11:01:54;;;;;;;1.20;0.98;;;;;;;;;;5054604;28;20330;-80
2023/08/27 11:04:19;;;;;;;2.03;1.17;;;;;;;;;;5064473;28;20238;-80
2023/08/27 11:06:46;;;;;;;2.35;1.20;;;;;;;;;;5020956;28;20216;-78
2023/08/27 11:09:27;;;;;;;1.35;1.25;;;;;;;;;;5038839;28;20208;-79
2023/08/27 11:11:59;;;;;;;1.20;1.08;;;;;;;;;;5059402;28;20225;-80
2023/08/27 11:14:27;;;;;;;2.20;1.38;;;;;;;;;;5021373;28;20242;-77
2023/08/27 11:16:57;;;;;;;1.45;1.10;;;;;;;;;;5039444;28;20218;-82
2023/08/27 11:19:35;;;;;;;1.85;1.20;;;;;;;;;;5038545;28;21621;-79
2023/08/27 11:22:20;;;;;;;1.42;1.33;;;;;;;;;;5016442;28;20260;-79
2023/08/27 11:24:52;;;;;;;1.35;1.05;;;;;;;;;;5041333;28;20252;-77
2023/08/27 11:27:19;;;;;;;1.38;1.13;;;;;;;;;;5056252;28;20219;-79
2023/08/27 11:29:46;;;;;;;1.50;1.27;;;;;;;;;;5044711;28;20246;-78
2023/08/27 11:32:14;;;;;;;4.03;1.10;;;;;;;;;;5041230;28;20222;-80
2023/08/27 11:34:41;;;;;;;1.20;1.02;;;;;;;;;;5061273;28;20215;-80
2023/08/27 11:37:07;;;;;;;1.25;1.05;;;;;;;;;;5040165;28;20242;-79
2023/08/27 11:39:36;;;;;;;1.10;1.00;;;;;;;;;;5037646;28;20346;-80
2023/08/27 11:42:01;;;;;;;2.10;1.00;;;;;;;;;;5046247;28;20287;-80
2023/08/27 11:44:27;;;;;;;10.40;1.27;;;;;;;;;;5021418;28;20215;-80
2023/08/27 11:46:52;;;;;;;1.20;1.05;;;;;;;;;;5025427;28;20219;-80
2023/08/27 11:49:32;;;;;;;0.90;0.90;;;;;;;;;;5039834;28;20245;-79
2023/08/27 11:51:58;;;;;;;1.70;1.15;;;;;;;;;;5039904;28;20237;-79
2023/08/27 11:54:33;;;;;;;0.93;0.88;;;;;;;;;;5032018;28;20219;-81
2023/08/27 11:56:59;;;;;;;1.25;0.80;;;;;;;;;;5031276;28;20218;-79
2023/08/27 11:59:27;;;;;;;1.88;1.00;;;;;;;;;;5044778;28;20227;-79
2023/08/27 12:01:59;;;;;;;1.30;0.95;;;;;;;;;;5044150;28;20368;-80
2023/08/27 12:04:32;;;;;;;1.20;0.90;;;;;;;;;;5035752;28;20227;-80
2023/08/27 12:07:02;;;;;;;1.20;0.75;;;;;;;;;;5042508;28;20207;-79
2023/08/27 12:09:33;;;;;;;2.47;0.95;;;;;;;;;;5028002;28;20231;-80
2023/08/27 12:12:03;;;;;;;0.73;0.73;;;;;;;;;;5060593;28;20235;-80
2023/08/27 12:14:29;;;;;;;0.85;0.85;;;;;;;;;;5021646;28;20365;-80
2023/08/27 12:17:09;;;;;;;1.27;1.17;;;;;;;;;;5036181;28;20277;-79
2023/08/27 12:19:38;;;;;;;1.10;1.10;;;;;;;;;;5045281;28;20218;-80
2023/08/27 12:22:03;;;;;;;1.20;1.10;;;;;;;;;;5065237;28;20207;-80
2023/08/27 12:24:31;;;;;;;1.20;1.10;;;;;;;;;;5021972;28;20381;-80
2023/08/27 12:27:01;;;;;;;2.40;1.02;;;;;;;;;;5052718;28;20203;-79
2023/08/27 12:29:30;;;;;;;1.20;1.10;;;;;;;;;;5052790;28;20227;-80
2023/08/27 12:32:05;;;;;;;1.13;1.02;;;;;;;;;;5037519;28;20219;-81
2023/08/27 12:34:43;;;;;;;1.20;1.10;;;;;;;;;;5021864;28;20238;-80
2023/08/27 12:37:13;;;;;;;1.30;1.20;;;;;;;;;;5023265;28;20229;-80
2023/08/27 12:39:42;;;;;;;1.48;1.15;;;;;;;;;;5039872;28;20212;-79
2023/08/27 12:42:08;;;;;;;2.50;1.73;;;;;;;;;;5036150;28;20229;-85
2023/08/27 12:44:36;;;;;;;2.60;2.10;;;;;;;;;;5035034;28;20500;-87
2023/08/27 12:47:05;;;;;;;2.30;2.10;;;;;;;;;;5036617;28;20241;-85
2023/08/27 12:49:34;;;;;;;2.67;2.47;;;;;;;;;;5019059;28;20215;-86
2023/08/27 12:51:59;;;;;;;2.40;2.20;;;;;;;;;;5024298;28;20217;-86
2023/08/27 12:54:25;;;;;;;2.25;2.05;;;;;;;;;;5025335;28;20328;-86
2023/08/27 12:56:51;;;;;;;2.50;2.30;;;;;;;;;;5037949;28;20703;-87
2023/08/27 12:59:19;;;;;;;2.95;2.60;;;;;;;;;;5015020;28;20229;-86
2023/08/27 13:01:46;;;;;;;2.47;2.38;;;;;;;;;;5046212;28;20234;-88
2023/08/27 13:04:11;;;;;;;2.63;2.42;;;;;;;;;;5059085;28;20226;-84
2023/08/27 13:06:37;;;;;;;2.65;2.30;;;;;;;;;;5039178;28;20702;-87
2023/08/27 13:09:03;;;;;;;3.15;2.85;;;;;;;;;;5032530;28;20231;-86
2023/08/27 13:11:29;;;;;;;3.45;2.72;;;;;;;;;;5038482;28;20226;-85
2023/08/27 13:13:57;;;;;;;3.00;2.80;;;;;;;;;;5051120;28;20287;-89
2023/08/27 13:16:26;;;;;;;3.03;2.80;;;;;;;;;;5040780;28;20258;-87
2023/08/27 13:18:52;;;;;;;2.53;2.42;;;;;;;;;;5045383;28;20219;-87
2023/08/27 13:21:18;;;;;;;3.13;2.90;;;;;;;;;;5013920;28;20207;-87
2023/08/27 13:23:44;;;;;;;2.90;2.70;;;;;;;;;;5018370;28;20584;-86
2023/08/27 13:26:13;;;;;;;2.30;2.10;;;;;;;;;;5013299;28;20222;-88
2023/08/27 13:28:41;;;;;;;3.47;2.50;;;;;;;;;;5017268;28;20296;-86
2023/08/27 13:31:06;;;;;;;2.60;2.50;;;;;;;;;;5019433;28;20213;-87
2023/08/27 13:33:34;;;;;;;4.15;2.35;;;;;;;;;;5066105;28;20235;-85
2023/08/27 13:36:00;;;;;;;3.08;2.60;;;;;;;;;;5039631;28;20230;-88
2023/08/27 13:38:28;;;;;;;3.70;2.78;;;;;;;;;;5038633;28;20254;-86
2023/08/27 13:40:56;;;;;;;2.45;2.25;;;;;;;;;;5027581;28;20249;-86
2023/08/27 13:43:24;;;;;;;1.83;1.73;;;;;;;;;;5034426;28;20235;-84
2023/08/27 13:45:52;;;;;;;3.55;1.52;;;;;;;;;;5027223;28;20238;-86
2023/08/27 13:48:18;;;;;;;2.15;1.67;;;;;;;;;;5026666;28;20238;-86
2023/08/27 13:50:43;;;;;;;3.40;1.90;;;;;;;;;;5018207;28;20222;-86
2023/08/27 13:53:09;;;;;;;1.33;1.20;;;;;;;;;;5024325;28;20234;-87
2023/08/27 13:55:38;;;;;;;1.60;1.50;;;;;;;;;;5019176;28;20235;-86
2023/08/27 13:58:06;;;;;;;1.50;1.40;;;;;;;;;;5037577;28;20215;-85
2023/08/27 14:00:35;;;;;;;1.70;1.60;;;;;;;;;;5026093;28;20215;-86
2023/08/27 14:03:00;;;;;;;1.92;1.80;;;;;;;;;;5041312;28;20222;-87
2023/08/27 14:05:27;;;;;;;2.80;1.80;;;;;;;;;;5033304;28;20245;-84
2023/08/27 14:07:53;;;;;;;2.30;2.10;;;;;;;;;;5028113;28;20600;-84
2023/08/27 14:10:21;;;;;;;2.05;1.95;;;;;;;;;;5041359;28;20310;-86
2023/08/27 14:12:48;;;;;;;3.08;2.78;;;;;;;;;;5015942;28;20231;-87
2023/08/27 14:15:16;;;;;;;2.70;2.50;;;;;;;;;;5042314;28;20218;-86
2023/08/27 14:17:44;;;;;;;2.60;2.40;;;;;;;;;;5023274;28;20226;-85
2023/08/27 14:20:10;;;;;;;2.30;2.00;;;;;;;;;;5027826;28;20215;-85
2023/08/27 14:22:35;;;;;;;2.15;1.95;;;;;;;;;;5056740;28;20223;-83
2023/08/27 14:25:04;;;;;;;2.45;2.03;;;;;;;;;;5030324;28;20214;-84
2023/08/27 14:27:30;;;;;;;2.25;2.10;;;;;;;;;;5009188;28;20234;-85
2023/08/27 14:30:04;;;;;;;3.05;2.33;;;;;;;;;;5032239;28;20212;-85
2023/08/27 14:32:32;;;;;;;2.50;2.30;;;;;;;;;;5064771;28;20231;-88
2023/08/27 14:35:03;;;;;;;2.03;1.92;;;;;;;;;;5046061;28;20223;-86
2023/08/27 14:37:32;;;;;;;1.88;1.77;;;;;;;;;;5072793;28;20257;-86
2023/08/27 14:40:01;;;;;;;2.50;2.28;;;;;;;;;;5036113;28;20225;-86
2023/08/27 14:42:26;;;;;;;2.40;2.20;;;;;;;;;;5065284;28;20222;-85
2023/08/27 14:44:54;;;;;;;2.42;2.33;;;;;;;;;;5013053;28;20294;-87
2023/08/27 14:47:22;;;;;;;2.47;2.20;;;;;;;;;;5020796;28;20238;-86
2023/08/27 14:49:50;;;;;;;2.80;2.60;;;;;;;;;;5017542;28;20215;-88
2023/08/27 14:52:16;;;;;;;3.15;2.20;;;;;;;;;;5024830;28;20223;-85